Time;durP1;ratioP1;P1;durP2;ratioP2;P2;SDS_P1;SDS_P2;PMS_P1;PMS_P2;Temp;Humidity;BMP_temperature;BMP_pressure;BME280_temperature;BME280_humidity;BME280_pressure;Samples;Min_cycle;Max_cycle;Signal;HPM_P1;HPM_P2
2022/06/29 00:00:56;;;;;;;2.60;1.20;;;13.70;99.90;;;;;;4947773;28;20035;-73
2022/06/29 00:03:22;;;;;;;5.35;1.23;;;13.80;99.90;;;;;;4946160;29;20475;-73
2022/06/29 00:05:47;;;;;;;7.40;1.20;;;13.90;99.90;;;;;;4928588;29;20048;-74
2022/06/29 00:08:14;;;;;;;4.35;1.17;;;13.90;99.90;;;;;;4936867;29;20475;-74
2022/06/29 00:10:40;;;;;;;3.92;1.23;;;14.00;99.90;;;;;;4947459;28;20041;-74
2022/06/29 00:13:06;;;;;;;4.97;1.15;;;14.00;99.90;;;;;;4938941;29;20028;-74
2022/06/29 00:15:32;;;;;;;7.25;1.38;;;14.10;99.90;;;;;;4934671;29;20059;-73
2022/06/29 00:17:57;;;;;;;8.20;1.70;;;14.10;99.90;;;;;;4928208;29;20039;-74
2022/06/29 00:20:23;;;;;;;7.88;1.83;;;14.00;99.90;;;;;;4936416;29;20054;-74
2022/06/29 00:22:49;;;;;;;5.80;1.73;;;13.90;99.90;;;;;;4940097;29;20027;-74
2022/06/29 00:25:16;;;;;;;4.20;1.20;;;13.80;99.90;;;;;;4947115;29;20117;-74
2022/06/29 00:27:42;;;;;;;5.30;1.48;;;13.80;99.90;;;;;;4943678;29;20209;-74
2022/06/29 00:30:09;;;;;;;10.27;1.23;;;13.80;99.90;;;;;;4945534;28;20061;-73
2022/06/29 00:32:35;;;;;;;3.60;1.10;;;13.70;99.90;;;;;;4946430;28;20023;-74
2022/06/29 00:35:01;;;;;;;3.10;1.08;;;13.70;99.90;;;;;;4946781;29;20059;-74
2022/06/29 00:37:27;;;;;;;6.32;1.02;;;13.70;99.90;;;;;;4941808;29;20031;-73
2022/06/29 00:39:53;;;;;;;3.72;0.90;;;13.50;99.90;;;;;;4935973;29;20077;-73
2022/06/29 00:42:19;;;;;;;4.63;1.42;;;13.50;99.90;;;;;;4939589;29;20040;-73
2022/06/29 00:44:45;;;;;;;6.57;1.33;;;13.50;99.90;;;;;;4934876;29;20051;-73
2022/06/29 00:47:10;;;;;;;4.72;1.27;;;13.50;99.90;;;;;;4934097;29;20051;-74
2022/06/29 00:49:36;;;;;;;5.30;1.40;;;13.40;99.90;;;;;;4929006;29;20070;-74
2022/06/29 00:52:10;;;;;;;3.30;1.05;;;13.40;99.90;;;;;;4945938;29;20767;-74
2022/06/29 00:54:42;;;;;;;5.28;1.30;;;13.40;99.90;;;;;;4944229;29;20063;-74
2022/06/29 00:57:15;;;;;;;5.05;1.58;;;13.40;99.90;;;;;;4943661;29;20034;-74
2022/06/29 00:59:44;;;;;;;7.22;1.90;;;13.30;99.90;;;;;;4945923;28;20042;-74
2022/06/29 01:02:10;;;;;;;3.80;1.38;;;13.30;99.90;;;;;;4944780;28;20091;-74
2022/06/29 01:04:37;;;;;;;4.88;1.60;;;13.20;99.90;;;;;;4937017;29;20043;-74
2022/06/29 01:07:03;;;;;;;4.78;1.70;;;13.10;99.90;;;;;;4929468;29;20028;-73
2022/06/29 01:09:29;;;;;;;3.67;1.52;;;13.10;99.90;;;;;;4945843;29;20031;-74
2022/06/29 01:11:57;;;;;;;7.63;1.70;;;13.00;99.90;;;;;;4942963;28;20142;-73
2022/06/29 01:14:22;;;;;;;5.88;1.60;;;13.00;99.90;;;;;;4932227;29;20403;-73
2022/06/29 01:16:48;;;;;;;4.22;1.48;;;13.00;99.90;;;;;;4934181;29;20036;-73
2022/06/29 01:19:14;;;;;;;4.13;1.55;;;13.00;99.90;;;;;;4941456;28;20042;-74
2022/06/29 01:21:41;;;;;;;6.75;1.70;;;13.00;99.90;;;;;;4960361;28;20401;-73
2022/06/29 01:24:07;;;;;;;4.78;1.52;;;13.00;99.90;;;;;;4945996;28;20119;-73
2022/06/29 01:26:32;;;;;;;8.32;2.13;;;13.00;99.90;;;;;;4943417;28;20568;-74
2022/06/29 01:28:58;;;;;;;7.60;2.08;;;13.00;99.90;;;;;;4935239;29;20123;-74
2022/06/29 01:31:23;;;;;;;5.57;1.48;;;12.90;99.90;;;;;;4929843;29;20039;-73
2022/06/29 01:33:49;;;;;;;2.45;1.30;;;13.00;99.90;;;;;;4931271;29;20050;-74
2022/06/29 01:36:16;;;;;;;2.83;1.50;;;13.00;99.90;;;;;;4942387;29;20418;-74
2022/06/29 01:38:43;;;;;;;8.88;1.73;;;13.00;99.90;;;;;;4943715;29;20110;-74
2022/06/29 01:41:10;;;;;;;6.85;1.50;;;13.00;99.90;;;;;;4943440;29;20463;-73
2022/06/29 01:43:37;;;;;;;4.75;1.70;;;13.10;99.90;;;;;;4939440;29;20038;-73
2022/06/29 01:46:03;;;;;;;4.50;1.40;;;13.10;99.90;;;;;;4930702;29;20031;-74
2022/06/29 01:48:29;;;;;;;6.28;1.63;;;13.10;99.90;;;;;;4942598;29;20106;-74
2022/06/29 01:50:55;;;;;;;8.05;1.10;;;13.00;99.90;;;;;;4940588;29;20035;-74
2022/06/29 01:53:21;;;;;;;5.63;1.55;;;13.00;99.90;;;;;;4945646;28;20519;-74
2022/06/29 01:55:47;;;;;;;6.43;1.60;;;13.00;99.90;;;;;;4943802;29;20038;-74
2022/06/29 01:58:14;;;;;;;7.10;1.98;;;13.00;99.90;;;;;;4945162;28;20503;-73
2022/06/29 02:00:40;;;;;;;5.95;1.80;;;13.00;99.90;;;;;;4942826;29;20486;-74
2022/06/29 02:03:06;;;;;;;4.40;1.50;;;13.00;99.90;;;;;;4943463;29;20031;-74
2022/06/29 02:05:32;;;;;;;2.10;1.15;;;13.10;99.90;;;;;;4944339;29;20895;-74
2022/06/29 02:07:58;;;;;;;5.50;1.35;;;13.10;99.90;;;;;;4943988;29;20031;-74
2022/06/29 02:10:23;;;;;;;5.05;1.30;;;13.20;99.90;;;;;;4939716;28;20037;-75
2022/06/29 02:12:49;;;;;;;3.85;1.52;;;13.10;99.90;;;;;;4938125;29;20098;-74
2022/06/29 02:15:15;;;;;;;3.83;1.30;;;13.10;99.90;;;;;;4933177;29;20031;-74
2022/06/29 02:17:41;;;;;;;5.05;1.48;;;13.10;99.90;;;;;;4937186;29;20035;-74
2022/06/29 02:20:07;;;;;;;5.93;1.15;;;13.00;99.90;;;;;;4940116;29;20132;-74
2022/06/29 02:22:34;;;;;;;6.65;1.58;;;13.00;99.90;;;;;;4937891;29;20035;-74
2022/06/29 02:25:00;;;;;;;3.45;1.35;;;12.90;99.90;;;;;;4942318;28;20046;-74
2022/06/29 02:27:26;;;;;;;7.32;1.67;;;13.00;99.90;;;;;;4942006;28;20031;-74
2022/06/29 02:29:52;;;;;;;3.13;1.30;;;12.90;99.90;;;;;;4942960;29;20035;-74
2022/06/29 02:35:02;;;;;;;2.35;1.40;;;12.90;99.90;;;;;;4934476;29;20078;-74
2022/06/29 02:37:28;;;;;;;5.47;1.70;;;12.80;99.90;;;;;;4926528;29;20271;-74
2022/06/29 02:39:54;;;;;;;7.80;1.95;;;12.80;99.90;;;;;;4943648;29;20121;-74
2022/06/29 02:42:19;;;;;;;4.38;1.73;;;12.80;99.90;;;;;;4942630;28;20042;-74
2022/06/29 02:44:45;;;;;;;4.97;2.17;;;12.80;99.90;;;;;;4933169;29;20040;-76
2022/06/29 02:47:11;;;;;;;3.90;1.40;;;12.80;99.90;;;;;;4925922;29;20087;-74
2022/06/29 02:49:37;;;;;;;4.30;2.22;;;12.80;99.90;;;;;;4933953;29;20127;-74
2022/06/29 02:52:03;;;;;;;1.83;1.52;;;12.80;99.90;;;;;;4939168;29;20118;-74
2022/06/29 02:54:29;;;;;;;5.57;1.98;;;12.80;99.90;;;;;;4934078;28;20035;-74
2022/06/29 02:56:54;;;;;;;3.33;1.20;;;12.90;99.90;;;;;;4925416;29;20485;-76
2022/06/29 02:59:21;;;;;;;3.40;1.70;;;12.90;99.90;;;;;;4944372;29;20557;-74
2022/06/29 03:01:46;;;;;;;3.50;1.38;;;12.90;99.90;;;;;;4943379;29;20019;-74
2022/06/29 03:04:12;;;;;;;5.10;1.70;;;12.90;99.90;;;;;;4941980;29;20047;-74
2022/06/29 03:06:38;;;;;;;6.35;1.58;;;13.00;99.90;;;;;;4940511;29;20542;-74
2022/06/29 03:09:04;;;;;;;4.63;1.35;;;13.00;99.90;;;;;;4937050;29;20481;-73
2022/06/29 03:11:30;;;;;;;5.78;1.25;;;13.00;99.90;;;;;;4932540;29;20031;-75
2022/06/29 03:13:56;;;;;;;2.75;1.15;;;13.00;99.90;;;;;;4933508;29;20028;-74
2022/06/29 03:16:22;;;;;;;4.65;1.50;;;13.10;99.90;;;;;;4942856;29;20187;-74
2022/06/29 03:18:49;;;;;;;4.90;1.70;;;13.10;99.90;;;;;;4944404;29;20042;-75
2022/06/29 03:21:15;;;;;;;7.53;1.42;;;13.10;99.90;;;;;;4941133;28;20055;-76
2022/06/29 03:23:42;;;;;;;1.85;1.35;;;13.20;99.90;;;;;;4943506;29;20031;-76
2022/06/29 03:26:08;;;;;;;6.07;1.73;;;13.30;99.90;;;;;;4943651;28;20042;-76
2022/06/29 03:28:34;;;;;;;4.75;1.40;;;13.30;99.90;;;;;;4943264;29;20042;-76
2022/06/29 03:31:00;;;;;;;5.40;1.73;;;13.30;99.90;;;;;;4943378;29;20027;-76
2022/06/29 03:33:25;;;;;;;6.13;1.52;;;13.30;99.90;;;;;;4938872;29;20039;-76
2022/06/29 03:35:51;;;;;;;4.03;1.60;;;13.40;99.90;;;;;;4943845;29;20073;-75
2022/06/29 03:38:17;;;;;;;7.70;1.77;;;13.40;99.90;;;;;;4943486;29;20027;-76
2022/06/29 03:40:43;;;;;;;5.63;1.50;;;13.50;99.90;;;;;;4943914;29;20583;-76
2022/06/29 03:43:08;;;;;;;4.55;1.63;;;13.50;99.90;;;;;;4940318;29;20471;-76
2022/06/29 03:45:34;;;;;;;3.97;1.65;;;13.50;99.90;;;;;;4931217;29;20035;-76
2022/06/29 03:48:00;;;;;;;3.90;1.20;;;13.60;99.90;;;;;;4937361;29;20036;-76
2022/06/29 03:50:25;;;;;;;2.83;1.52;;;13.60;99.90;;;;;;4943690;28;20457;-73
2022/06/29 03:52:51;;;;;;;6.07;1.50;;;13.60;99.90;;;;;;4942064;29;20028;-76
2022/06/29 03:55:17;;;;;;;2.03;0.93;;;13.60;99.90;;;;;;4924740;29;20114;-76
2022/06/29 03:57:42;;;;;;;3.92;1.02;;;13.60;99.90;;;;;;4930576;29;20027;-76
2022/06/29 04:00:09;;;;;;;3.92;2.00;;;13.60;99.90;;;;;;4942650;29;20399;-76
2022/06/29 04:02:36;;;;;;;3.72;1.40;;;13.60;99.90;;;;;;4934783;28;20115;-76
2022/06/29 04:05:04;;;;;;;4.80;1.17;;;13.50;99.90;;;;;;4943732;29;20085;-76
2022/06/29 04:07:30;;;;;;;4.35;1.25;;;13.60;99.90;;;;;;4939427;28;20042;-76
2022/06/29 04:09:59;;;;;;;5.10;1.45;;;13.60;99.90;;;;;;4943668;28;20111;-76
2022/06/29 04:12:36;;;;;;;3.80;1.30;;;13.60;99.90;;;;;;4942780;28;20040;-76
2022/06/29 04:15:03;;;;;;;2.97;1.35;;;13.60;99.90;;;;;;4934264;28;20043;-76
2022/06/29 04:17:29;;;;;;;6.70;2.15;;;13.60;99.90;;;;;;4942247;28;20552;-76
2022/06/29 04:19:55;;;;;;;5.78;1.38;;;13.60;99.90;;;;;;4929818;29;20608;-76
2022/06/29 04:22:21;;;;;;;5.85;1.45;;;13.60;99.90;;;;;;4939768;29;20086;-76
2022/06/29 04:24:47;;;;;;;4.85;1.58;;;13.60;99.90;;;;;;4943510;28;20035;-76
2022/06/29 04:27:13;;;;;;;4.32;1.38;;;13.70;99.90;;;;;;4942721;29;20038;-75
2022/06/29 04:29:39;;;;;;;5.65;1.70;;;13.70;99.90;;;;;;4942703;29;20043;-75
2022/06/29 04:32:05;;;;;;;4.20;1.48;;;13.70;99.90;;;;;;4942016;29;20031;-76
2022/06/29 04:34:30;;;;;;;4.00;1.90;;;13.80;99.90;;;;;;4945812;29;20510;-76
2022/06/29 04:36:56;;;;;;;4.65;1.38;;;13.90;99.90;;;;;;4930896;29;20051;-76
2022/06/29 04:39:22;;;;;;;7.95;2.28;;;14.00;99.90;;;;;;4934824;29;20123;-76
2022/06/29 04:41:48;;;;;;;6.53;1.80;;;14.10;99.90;;;;;;4943946;28;20028;-76
2022/06/29 04:44:14;;;;;;;4.80;1.75;;;14.20;99.90;;;;;;4940551;29;20054;-76
2022/06/29 04:46:40;;;;;;;7.07;1.85;;;14.30;99.90;;;;;;4937521;29;20046;-76
2022/06/29 04:49:06;;;;;;;7.60;2.28;;;14.40;99.90;;;;;;4934849;29;20402;-76
2022/06/29 04:51:33;;;;;;;7.32;2.20;;;14.50;99.90;;;;;;4930195;29;20499;-76
2022/06/29 04:54:00;;;;;;;4.53;1.80;;;14.60;99.90;;;;;;4944745;29;20031;-76
2022/06/29 04:56:32;;;;;;;8.57;2.35;;;14.60;99.90;;;;;;4944204;28;20023;-76
2022/06/29 04:58:59;;;;;;;6.28;2.00;;;14.70;99.90;;;;;;4927959;29;20641;-76
2022/06/29 05:01:26;;;;;;;6.75;1.77;;;14.80;99.90;;;;;;4940913;29;20042;-76
2022/06/29 05:03:52;;;;;;;4.18;1.50;;;14.80;99.90;;;;;;4948696;29;20028;-75
2022/06/29 05:06:20;;;;;;;4.65;1.95;;;14.80;99.90;;;;;;4925978;28;20046;-76
2022/06/29 05:08:47;;;;;;;5.43;1.83;;;14.90;99.90;;;;;;4934399;28;20035;-75
2022/06/29 05:11:14;;;;;;;6.05;2.50;;;14.90;99.90;;;;;;4933611;28;20050;-75
2022/06/29 05:13:41;;;;;;;6.20;2.28;;;15.00;99.90;;;;;;4941226;29;20025;-75
2022/06/29 05:16:06;;;;;;;8.93;1.80;;;15.00;99.90;;;;;;4943060;28;20463;-75
2022/06/29 05:18:33;;;;;;;6.53;2.10;;;15.10;99.90;;;;;;4943299;29;20031;-75
2022/06/29 05:20:59;;;;;;;3.15;1.60;;;15.10;99.90;;;;;;4941812;28;20165;-75
2022/06/29 05:23:25;;;;;;;5.95;1.70;;;15.10;99.90;;;;;;4942469;29;20469;-76
2022/06/29 05:25:52;;;;;;;12.50;2.40;;;15.10;99.90;;;;;;4932854;28;20098;-76
2022/06/29 05:28:18;;;;;;;3.75;1.50;;;15.20;99.90;;;;;;4929788;29;20046;-74
2022/06/29 05:30:44;;;;;;;4.78;1.90;;;15.20;99.90;;;;;;4941761;29;20134;-75
2022/06/29 05:33:09;;;;;;;5.00;1.83;;;15.30;99.90;;;;;;4943181;29;20278;-74
2022/06/29 05:35:35;;;;;;;5.93;2.00;;;15.30;99.90;;;;;;4942265;29;20031;-75
2022/06/29 05:38:04;;;;;;;5.70;1.70;;;15.30;99.90;;;;;;4943406;29;20042;-75
2022/06/29 05:40:30;;;;;;;6.03;1.80;;;15.40;99.90;;;;;;4936842;29;20042;-75
2022/06/29 05:42:59;;;;;;;8.00;1.55;;;15.50;99.90;;;;;;4934746;29;21953;-74
2022/06/29 05:45:26;;;;;;;8.13;1.83;;;15.50;99.90;;;;;;4931879;29;20120;-75
2022/06/29 05:47:53;;;;;;;6.85;1.90;;;15.50;99.90;;;;;;4939444;29;20038;-74
2022/06/29 05:50:21;;;;;;;7.25;1.83;;;15.60;99.90;;;;;;4941058;29;20065;-74
2022/06/29 05:52:47;;;;;;;10.00;2.30;;;15.70;99.90;;;;;;4961463;28;20027;-74
2022/06/29 05:55:13;;;;;;;5.93;1.77;;;15.70;99.90;;;;;;4949026;28;20082;-76
2022/06/29 05:57:38;;;;;;;8.55;1.92;;;15.70;99.90;;;;;;4933537;29;20031;-75
2022/06/29 06:00:05;;;;;;;7.05;2.30;;;15.80;99.90;;;;;;4938527;29;20042;-75
2022/06/29 06:02:31;;;;;;;9.70;1.98;;;15.70;99.90;;;;;;4941198;28;20055;-75
2022/06/29 06:04:57;;;;;;;5.82;1.55;;;15.80;99.90;;;;;;4931123;28;20182;-74
2022/06/29 06:07:22;;;;;;;9.85;1.83;;;15.80;99.90;;;;;;4936806;28;20738;-74
2022/06/29 06:09:48;;;;;;;6.40;2.08;;;15.90;99.90;;;;;;4945492;29;20737;-76
2022/06/29 06:12:14;;;;;;;5.38;1.88;;;15.80;99.90;;;;;;4938811;28;20041;-76
2022/06/29 06:14:39;;;;;;;8.95;1.73;;;15.80;99.90;;;;;;4937205;28;20030;-76
2022/06/29 06:17:05;;;;;;;10.27;1.92;;;15.80;99.90;;;;;;4929886;28;20090;-75
2022/06/29 06:19:31;;;;;;;7.68;2.00;;;15.80;99.90;;;;;;4942079;28;20043;-75
2022/06/29 06:21:56;;;;;;;7.20;1.88;;;15.80;99.90;;;;;;4940264;28;20046;-76
2022/06/29 06:24:22;;;;;;;9.43;2.67;;;15.80;99.90;;;;;;4941986;29;20479;-76
2022/06/29 06:26:48;;;;;;;10.95;2.15;;;15.80;99.90;;;;;;4934719;29;20251;-76
2022/06/29 06:29:13;;;;;;;6.28;2.00;;;15.70;99.90;;;;;;4943716;29;20039;-76
2022/06/29 06:31:39;;;;;;;8.07;2.78;;;15.70;99.90;;;;;;4940264;29;20114;-75
2022/06/29 06:34:05;;;;;;;8.65;2.05;;;15.70;99.90;;;;;;4943542;29;20166;-76
2022/06/29 06:36:30;;;;;;;7.10;2.03;;;15.70;99.90;;;;;;4935127;29;20423;-75
2022/06/29 06:38:56;;;;;;;8.05;2.42;;;15.80;99.90;;;;;;4941923;29;20031;-77
2022/06/29 06:41:22;;;;;;;5.50;2.15;;;15.90;99.90;;;;;;4950931;28;20880;-77
2022/06/29 06:43:54;;;;;;;6.28;2.53;;;15.90;99.90;;;;;;4940820;29;20460;-78
2022/06/29 06:46:21;;;;;;;5.78;2.45;;;15.90;99.90;;;;;;4937467;28;20043;-78
2022/06/29 06:48:48;;;;;;;8.50;2.58;;;16.10;99.90;;;;;;4930801;29;20031;-78
2022/06/29 06:51:14;;;;;;;3.55;2.05;;;16.20;99.90;;;;;;4938405;29;20138;-80
2022/06/29 06:53:40;;;;;;;7.07;1.90;;;16.40;99.90;;;;;;4940273;29;20474;-79
2022/06/29 06:56:08;;;;;;;4.87;2.50;;;16.40;99.90;;;;;;4595907;28;10000394;-77
2022/06/29 06:58:37;;;;;;;3.72;1.58;;;16.50;99.90;;;;;;4928115;28;20536;-77
2022/06/29 07:01:07;;;;;;;4.78;1.02;;;16.60;99.90;;;;;;4937299;29;20783;-75
2022/06/29 07:03:35;;;;;;;4.30;1.40;;;16.60;99.90;;;;;;4927859;28;20038;-76
2022/06/29 07:06:05;;;;;;;4.55;1.45;;;16.60;99.90;;;;;;4922801;28;20121;-75
2022/06/29 07:08:32;;;;;;;3.22;1.05;;;16.60;99.90;;;;;;4938551;28;20493;-75
2022/06/29 07:10:59;;;;;;;3.30;1.23;;;16.50;99.90;;;;;;4933926;28;20035;-74
2022/06/29 07:13:24;;;;;;;4.07;1.08;;;16.60;99.90;;;;;;4934943;28;20086;-75
2022/06/29 07:15:50;;;;;;;1.58;1.45;;;16.60;99.90;;;;;;4930688;28;20043;-75
2022/06/29 07:18:16;;;;;;;1.42;1.23;;;16.60;99.90;;;;;;4935956;28;20046;-75
2022/06/29 07:20:41;;;;;;;2.63;1.48;;;16.70;99.90;;;;;;4939846;29;20051;-74
2022/06/29 07:23:07;;;;;;;1.90;0.98;;;16.70;99.90;;;;;;4939605;29;20479;-75
2022/06/29 07:25:33;;;;;;;2.10;1.10;;;16.70;99.90;;;;;;4936659;29;20059;-74
2022/06/29 07:27:59;;;;;;;1.48;0.95;;;16.80;99.90;;;;;;4931388;29;20043;-74
2022/06/29 07:30:25;;;;;;;2.45;0.98;;;16.70;99.90;;;;;;4935471;29;20038;-73
2022/06/29 07:32:50;;;;;;;2.63;1.40;;;16.90;99.90;;;;;;4930010;28;20578;-73
2022/06/29 07:35:16;;;;;;;1.05;0.82;;;17.00;99.90;;;;;;4932372;28;20057;-74
2022/06/29 07:37:42;;;;;;;1.27;1.17;;;17.20;99.90;;;;;;4933698;28;20113;-74
2022/06/29 07:40:08;;;;;;;1.23;0.80;;;17.50;99.90;;;;;;4933920;29;20035;-74
2022/06/29 07:42:35;;;;;;;3.13;0.90;;;17.60;99.90;;;;;;4935124;28;20129;-74
2022/06/29 07:45:02;;;;;;;1.92;0.93;;;17.60;99.90;;;;;;4931734;28;20035;-75
2022/06/29 07:47:28;;;;;;;3.83;1.40;;;17.60;99.90;;;;;;4927849;29;21762;-75
2022/06/29 07:49:54;;;;;;;2.45;0.82;;;17.60;99.90;;;;;;4925608;28;20042;-75
2022/06/29 07:52:20;;;;;;;2.10;0.90;;;17.60;99.90;;;;;;4925647;28;20086;-74
2022/06/29 07:54:46;;;;;;;3.92;1.00;;;17.60;99.90;;;;;;4925699;28;20045;-75
2022/06/29 07:57:11;;;;;;;3.17;1.13;;;17.40;99.90;;;;;;4927384;29;20027;-76
2022/06/29 07:59:37;;;;;;;3.63;1.40;;;17.10;99.90;;;;;;4927187;29;20043;-74
2022/06/29 08:02:03;;;;;;;3.08;1.60;;;16.90;99.90;;;;;;4928296;28;20031;-75
2022/06/29 08:04:28;;;;;;;3.05;1.75;;;16.70;99.90;;;;;;4941918;28;20067;-74
2022/06/29 08:06:54;;;;;;;3.38;1.65;;;16.50;99.90;;;;;;4938985;29;20522;-74
2022/06/29 08:09:20;;;;;;;5.78;2.22;;;16.30;99.90;;;;;;4942960;29;20043;-74
2022/06/29 08:11:46;;;;;;;5.45;2.00;;;16.30;99.90;;;;;;4929072;29;20035;-74
2022/06/29 08:14:12;;;;;;;4.82;2.30;;;16.30;99.90;;;;;;4936758;29;20035;-75
2022/06/29 08:16:38;;;;;;;3.83;1.70;;;16.40;99.90;;;;;;4927532;29;20098;-74
2022/06/29 08:19:03;;;;;;;4.03;1.70;;;16.60;99.90;;;;;;4929382;29;20027;-75
2022/06/29 08:21:29;;;;;;;6.28;2.10;;;16.70;99.90;;;;;;4927147;29;20051;-74
2022/06/29 08:23:55;;;;;;;5.57;2.42;;;16.80;99.90;;;;;;4930921;28;20035;-72
2022/06/29 08:26:20;;;;;;;3.15;1.50;;;16.90;99.90;;;;;;4932531;29;20418;-74
2022/06/29 08:28:46;;;;;;;3.65;1.88;;;16.90;99.90;;;;;;4932195;29;20581;-73
2022/06/29 08:31:12;;;;;;;4.60;1.65;;;17.10;99.90;;;;;;4930619;29;20047;-73
2022/06/29 08:33:37;;;;;;;5.18;2.33;;;17.00;99.90;;;;;;4930041;29;20029;-74
2022/06/29 08:36:03;;;;;;;5.30;1.67;;;16.90;99.90;;;;;;4935632;29;20062;-73
2022/06/29 08:38:29;;;;;;;4.40;2.25;;;16.60;99.90;;;;;;4932470;29;20035;-74
2022/06/29 08:40:56;;;;;;;3.65;2.50;;;16.50;99.90;;;;;;4932355;29;20023;-73
2022/06/29 08:43:22;;;;;;;6.32;2.95;;;16.40;99.90;;;;;;4944871;29;20054;-73
2022/06/29 08:45:49;;;;;;;5.88;3.15;;;16.40;99.90;;;;;;4940942;29;20050;-73
2022/06/29 08:48:16;;;;;;;7.05;2.75;;;16.40;99.90;;;;;;4945617;28;20035;-73
2022/06/29 08:50:45;;;;;;;7.32;2.72;;;16.50;99.90;;;;;;4926752;29;20489;-73
2022/06/29 08:53:14;;;;;;;7.85;2.80;;;16.50;99.90;;;;;;4935447;28;20046;-73
2022/06/29 08:55:51;;;;;;;10.13;3.28;;;16.40;99.90;;;;;;4936905;29;20069;-73
2022/06/29 08:58:21;;;;;;;4.35;2.65;;;16.40;99.90;;;;;;4940756;28;20035;-74
2022/06/29 09:00:51;;;;;;;5.63;2.50;;;16.50;99.90;;;;;;4939992;28;20129;-73
2022/06/29 09:03:18;;;;;;;9.90;3.10;;;16.50;99.90;;;;;;4962368;28;20026;-72
2022/06/29 09:05:49;;;;;;;2.72;2.15;;;16.70;99.90;;;;;;4958586;28;20535;-73
2022/06/29 09:08:16;;;;;;;6.10;2.83;;;16.80;99.90;;;;;;4935686;29;20035;-72
2022/06/29 09:10:41;;;;;;;3.33;2.45;;;16.90;99.90;;;;;;4924630;29;20141;-72
2022/06/29 09:13:08;;;;;;;3.05;1.50;;;17.00;99.90;;;;;;4926353;29;20115;-72
2022/06/29 09:15:38;;;;;;;3.42;1.83;;;17.00;99.90;;;;;;4930019;29;20473;-73
2022/06/29 09:18:22;;;;;;;4.07;2.25;;;17.10;99.90;;;;;;4937703;29;20031;-72
2022/06/29 09:20:54;;;;;;;3.88;2.55;;;17.50;99.90;;;;;;4933333;28;20047;-72
2022/06/29 09:23:20;;;;;;;4.18;1.70;;;17.80;99.90;;;;;;4936157;28;20063;-73
2022/06/29 09:25:45;;;;;;;3.35;2.00;;;18.10;99.90;;;;;;4930465;28;20142;-73
2022/06/29 09:28:29;;;;;;;4.38;1.40;;;18.40;99.90;;;;;;4931015;29;20031;-73
2022/06/29 09:30:56;;;;;;;4.47;1.33;;;18.40;99.90;;;;;;4932530;28;20481;-74
2022/06/29 09:33:26;;;;;;;4.97;1.70;;;18.50;99.90;;;;;;4941739;28;20027;-73
2022/06/29 09:36:14;;;;;;;1.50;1.00;;;18.30;99.90;;;;;;4945589;28;20035;-73
2022/06/29 09:38:41;;;;;;;3.15;1.13;;;18.10;99.90;;;;;;4945997;29;20109;-73
2022/06/29 09:41:08;;;;;;;2.78;1.10;;;17.90;99.90;;;;;;4942784;29;20162;-73
2022/06/29 09:43:45;;;;;;;2.78;1.13;;;17.70;99.90;;;;;;4935471;28;20035;-74
2022/06/29 09:46:13;;;;;;;3.10;0.95;;;17.50;99.90;;;;;;4939695;29;20047;-73
2022/06/29 09:48:41;;;;;;;1.17;1.08;;;17.30;99.90;;;;;;4936650;28;20031;-73
2022/06/29 09:53:55;;;;;;;4.15;1.38;;;17.50;99.90;;;;;;4929419;29;20403;-73
2022/06/29 09:56:22;;;;;;;3.20;2.28;;;17.60;99.90;;;;;;4594792;28;10000562;-74
2022/06/29 09:58:49;;;;;;;5.75;1.77;;;17.60;99.90;;;;;;4943583;28;20030;-73
2022/06/29 10:04:01;;;;;;;1.45;0.85;;;17.40;99.90;;;;;;4944630;28;20039;-74
2022/06/29 10:06:28;;;;;;;5.38;1.25;;;17.40;99.90;;;;;;4939408;28;20035;-75
2022/06/29 10:08:54;;;;;;;4.65;1.05;;;17.20;99.90;;;;;;4937333;28;20035;-75
2022/06/29 10:14:54;;;;;;;7.05;2.10;;;16.90;99.90;;;;;;4934584;28;20039;-73
2022/06/29 10:17:39;;;;;;;4.38;1.80;;;17.40;99.90;;;;;;4931528;29;20032;-75
2022/06/29 10:20:17;;;;;;;4.22;1.38;;;17.80;99.90;;;;;;4930537;28;20890;-74
2022/06/29 10:22:42;;;;;;;4.47;1.63;;;17.80;99.90;;;;;;4932745;29;20031;-74
2022/06/29 10:25:11;;;;;;;6.40;1.90;;;17.80;99.90;;;;;;4930982;28;20043;-73
2022/06/29 10:27:37;;;;;;;5.03;1.65;;;17.90;99.90;;;;;;4934383;28;20109;-74
2022/06/29 10:30:23;;;;;;;7.28;1.80;;;17.90;99.90;;;;;;4937630;28;20031;-73
2022/06/29 10:32:50;;;;;;;9.70;1.77;;;17.80;99.90;;;;;;4939382;29;20491;-74
2022/06/29 10:35:16;;;;;;;7.43;1.83;;;17.70;99.90;;;;;;4949894;28;20046;-73
2022/06/29 10:37:53;;;;;;;10.52;1.95;;;17.80;99.90;;;;;;4943031;28;20023;-75
2022/06/29 10:40:24;;;;;;;8.00;2.10;;;17.60;99.90;;;;;;4937774;29;20039;-74
2022/06/29 10:43:09;;;;;;;9.48;1.90;;;17.40;99.90;;;;;;4938106;28;20409;-74
2022/06/29 10:45:36;;;;;;;8.68;1.98;;;17.40;99.90;;;;;;4940594;29;20051;-74
2022/06/29 10:48:06;;;;;;;4.38;2.00;;;17.60;99.90;;;;;;4937135;29;20695;-75
2022/06/29 10:50:32;;;;;;;5.72;1.95;;;17.90;99.90;;;;;;4930654;29;20039;-74
2022/06/29 10:53:05;;;;;;;7.72;2.15;;;18.40;99.90;;;;;;4941058;28;20043;-76
2022/06/29 10:55:33;;;;;;;3.20;1.20;;;19.80;99.90;;;;;;4927425;28;20111;-74
2022/06/29 10:58:00;;;;;;;4.53;1.73;;;20.80;99.90;;;;;;4936682;29;20035;-74
2022/06/29 11:00:31;;;;;;;4.72;1.00;;;21.90;99.90;;;;;;4939368;28;20395;-71
2022/06/29 11:02:57;;;;;;;1.85;0.88;;;22.10;99.90;;;;;;4936572;29;20122;-72
2022/06/29 11:05:23;;;;;;;3.30;0.88;;;22.30;99.90;;;;;;4935062;29;20062;-71
2022/06/29 11:13:23;;;;;;;2.97;0.68;;;25.90;99.90;;;;;;4935382;29;20035;-74
2022/06/29 11:15:50;;;;;;;1.02;0.45;;;26.90;99.90;;;;;;4940449;29;20038;-73
2022/06/29 11:18:21;;;;;;;3.33;0.70;;;26.80;99.90;;;;;;4936373;29;20046;-74
2022/06/29 11:20:50;;;;;;;2.95;0.70;;;26.30;99.90;;;;;;4932370;28;20499;-74
2022/06/29 11:23:18;;;;;;;2.58;0.65;;;26.40;99.90;;;;;;4939647;29;20039;-73
2022/06/29 11:25:47;;;;;;;4.72;0.45;;;25.90;99.90;;;;;;4937103;28;20036;-74
2022/06/29 11:28:20;;;;;;;2.58;0.43;;;25.70;99.90;;;;;;4934284;28;20098;-75
2022/06/29 11:31:04;;;;;;;2.75;0.63;;;25.20;99.90;;;;;;4911500;28;20050;-70
2022/06/29 11:33:34;;;;;;;3.33;0.60;;;24.00;99.90;;;;;;4931506;28;20036;-73
2022/06/29 11:36:07;;;;;;;4.30;0.80;;;23.80;99.90;;;;;;4940127;29;20032;-71
2022/06/29 11:38:39;;;;;;;4.38;1.13;;;24.10;99.90;;;;;;4931455;29;20219;-73
2022/06/29 11:41:15;;;;;;;5.13;0.55;;;24.00;99.90;;;;;;4932926;28;20114;-72
2022/06/29 11:43:41;;;;;;;2.65;0.70;;;23.30;99.90;;;;;;4930814;28;20031;-72
2022/06/29 11:46:21;;;;;;;2.90;0.70;;;23.30;99.90;;;;;;4938637;29;20101;-72
2022/06/29 11:51:46;;;;;;;4.05;0.95;;;23.30;99.90;;;;;;4935588;28;20045;-72
2022/06/29 11:54:12;;;;;;;3.42;0.90;;;23.30;99.90;;;;;;4942881;28;20031;-71
2022/06/29 11:56:38;;;;;;;4.03;0.95;;;23.20;99.90;;;;;;4943185;28;20086;-72
2022/06/29 11:59:05;;;;;;;4.45;1.13;;;23.40;99.90;;;;;;4941182;28;20491;-72
2022/06/29 12:01:31;;;;;;;4.13;1.17;;;23.20;99.90;;;;;;4942265;28;20463;-71
2022/06/29 12:04:01;;;;;;;4.35;1.20;;;23.60;99.90;;;;;;4945205;28;20098;-73
2022/06/29 12:06:35;;;;;;;2.53;0.80;;;23.50;99.90;;;;;;4941135;29;20649;-72
2022/06/29 12:09:01;;;;;;;4.70;1.30;;;23.20;99.90;;;;;;4940463;28;20031;-72
2022/06/29 12:11:26;;;;;;;6.63;1.60;;;23.40;99.90;;;;;;4944629;28;20396;-73
2022/06/29 12:13:52;;;;;;;3.00;1.30;;;23.70;99.90;;;;;;4938270;28;20031;-71
2022/06/29 12:16:18;;;;;;;5.78;1.40;;;23.80;99.90;;;;;;4936584;28;20038;-74
2022/06/29 12:18:44;;;;;;;3.58;0.75;;;24.00;99.90;;;;;;4943558;28;20073;-74
2022/06/29 12:21:09;;;;;;;4.75;0.93;;;23.70;99.90;;;;;;4939489;29;20051;-72
2022/06/29 12:23:36;;;;;;;5.32;1.60;;;23.80;99.90;;;;;;4946382;28;20035;-72
2022/06/29 12:26:03;;;;;;;5.03;1.00;;;24.10;99.90;;;;;;4944321;28;20102;-71
2022/06/29 12:28:28;;;;;;;4.65;1.00;;;23.80;99.90;;;;;;4933280;29;20035;-72
2022/06/29 12:30:54;;;;;;;4.78;1.15;;;23.30;99.90;;;;;;4934379;28;20035;-74
2022/06/29 12:33:21;;;;;;;7.82;1.40;;;23.00;99.90;;;;;;4939542;28;20042;-72
2022/06/29 12:35:47;;;;;;;5.55;1.55;;;23.60;99.90;;;;;;4942699;28;20118;-71
2022/06/29 12:38:12;;;;;;;7.00;1.23;;;23.40;99.90;;;;;;4942499;29;20031;-74
2022/06/29 12:40:38;;;;;;;6.25;1.73;;;22.90;99.90;;;;;;4594407;28;10000537;-73
2022/06/29 12:43:05;;;;;;;7.85;1.83;;;22.90;99.90;;;;;;4935473;28;20114;-74
2022/06/29 12:45:31;;;;;;;6.57;2.08;;;22.80;99.90;;;;;;4942776;28;20676;-75
2022/06/29 12:47:57;;;;;;;5.20;1.55;;;23.10;99.90;;;;;;4945069;29;20019;-74
2022/06/29 12:50:23;;;;;;;5.68;1.20;;;22.90;99.90;;;;;;4944835;29;20031;-74
2022/06/29 12:52:50;;;;;;;6.47;1.42;;;22.50;99.90;;;;;;4956071;28;20031;-74
2022/06/29 12:55:20;;;;;;;6.28;1.70;;;22.40;99.90;;;;;;4943227;28;20047;-74
2022/06/29 12:57:46;;;;;;;5.60;1.30;;;22.60;99.90;;;;;;4937879;28;20066;-73
2022/06/29 13:00:13;;;;;;;8.75;1.90;;;22.80;99.90;;;;;;4938362;28;20533;-73
2022/06/29 13:02:39;;;;;;;10.20;1.70;;;22.60;99.90;;;;;;4939047;28;20035;-73
2022/06/29 13:05:06;;;;;;;10.82;2.28;;;22.70;99.90;;;;;;4943028;29;20126;-73